Fort Myers, FL (33919)

11:35 PM EDT on May 25, 2015 (GMT -0400)
Heritage Cove | | Change Station
CLOSE
Current Station
Personal Weather Station
Location: Fort Myers, FL
Elevation: 9 ft
Nearby Weather Stations

Elev 9 ft 26.54 °N, 81.91 °W | Updated 3 minutes ago

Mostly Cloudy
Mostly Cloudy
75.5 °F
Feels Like 74 °F
N
0.0
Wind Variable Wind from SE
Gusts 3.0 mph

Today
High -- | Low -- °F
--% Chance of Precip.
Yesterday
High -- | Low -- °F
Precip. -- in
6:36 AM 8:12 PM
First Quarter, 54% visible
Pressure 30.16 in
Visibility 10.0 miles
Clouds Clear
Heat Index 74 °F
Dew Point 74 °F
Humidity 96%
Rainfall 0.33 in
Snow Depth Not available.
UV 0 out of 12
Pollen 4.10 out of 12
Air Quality Not available.
Flu Activity Sporadic
METAR KFMY 260253Z AUTO 10006KT 10SM CLR 26/22 A3015 RMK AO2 SLP212 T02610222 53014

More Conditions Fewer Conditions

Pressure 30.16 in
Visibility 10.0 miles
Clouds Clear
Heat Index 74 °F
Dew Point 74 °F
Humidity 96%
Rainfall 0.33 in
Snow Depth Not available.
UV 0 out of 12
Pollen 4.10 out of 12
Air Quality Not available.
Flu Activity Sporadic
METAR KFMY 260253Z AUTO 10006KT 10SM CLR 26/22 A3015 RMK AO2 SLP212 T02610222 53014

More Conditions Fewer Conditions

10-Day Weather Forecast

Almanac

Astronomy

May. 25, 2015 Rise Set
Actual Time
Civil Twilight
Nautical Twilight
Astronomical Twilight
Moon
Length of Visible Light
Length of Day
Tomorrow will be .
, % of the Moon is Illuminated

Today's Extremes

State Highs State Lows

Community

WunderPhotos

Upload Photos

1,824,263 photos uploaded!

WunderBlogs® & News

Nearby

Air Quality

  Air Quality AQ Index Pollutant
Not available.

Snow Depth

Station Depth Elevation

Earthquake Activity

City Distance Mag. Time & Date
Minimum magnitude displayed is 2.5.

Coastal Water Temperatures

Place Temperature

Stations

Nearby Weather Stations

Station Location Temp. Windchill Dew Point Humidity Wind Precip. Elev Updated Type